Time;durP1;ratioP1;P1;durP2;ratioP2;P2;SDS_P1;SDS_P2;PMS_P1;PMS_P2;Temp;Humidity;BMP_temperature;BMP_pressure;BME280_temperature;BME280_humidity;BME280_pressure;Samples;Min_cycle;Max_cycle;Signal;HPM_P1;HPM_P2
2021/03/17 00:00:30;;;;;;;18.90;10.32;;;1.20;99.90;;;;;;5095609;28;20396;-76
2021/03/17 00:02:57;;;;;;;14.35;9.10;;;1.20;99.90;;;;;;5095710;28;20031;-76
2021/03/17 00:05:28;;;;;;;18.33;10.32;;;1.10;99.90;;;;;;5095567;28;20028;-76
2021/03/17 00:07:53;;;;;;;15.27;9.43;;;1.00;99.90;;;;;;5095647;28;20031;-76
2021/03/17 00:10:21;;;;;;;14.95;9.95;;;0.90;99.90;;;;;;5095551;28;20028;-76
2021/03/17 00:12:49;;;;;;;16.80;10.38;;;0.90;99.90;;;;;;5095391;28;20020;-76
2021/03/17 00:15:20;;;;;;;16.77;10.73;;;0.80;99.90;;;;;;5095345;28;20418;-76
2021/03/17 00:17:45;;;;;;;21.60;12.82;;;0.80;99.90;;;;;;5095446;28;20496;-76
2021/03/17 00:20:11;;;;;;;18.90;12.50;;;0.70;99.90;;;;;;5095459;28;20040;-76
2021/03/17 00:22:38;;;;;;;29.30;14.75;;;0.70;99.90;;;;;;5095346;28;20020;-76
2021/03/17 00:25:04;;;;;;;25.38;13.05;;;0.60;99.90;;;;;;5095251;28;20030;-76
2021/03/17 00:27:29;;;;;;;27.23;14.50;;;0.70;99.90;;;;;;5095255;28;20020;-76
2021/03/17 00:29:55;;;;;;;24.98;14.45;;;0.70;99.90;;;;;;5095195;28;20249;-76
2021/03/17 00:32:21;;;;;;;30.10;15.38;;;0.70;99.90;;;;;;5095169;28;20357;-76
2021/03/17 00:34:46;;;;;;;27.73;15.45;;;0.80;99.90;;;;;;5094954;28;20074;-76
2021/03/17 00:37:12;;;;;;;25.67;14.55;;;0.80;99.90;;;;;;5096338;28;20173;-76
2021/03/17 00:39:37;;;;;;;24.00;14.40;;;0.90;99.90;;;;;;5094925;28;20023;-76
2021/03/17 00:42:03;;;;;;;22.20;14.23;;;0.90;99.90;;;;;;5094943;28;20076;-76
2021/03/17 00:44:29;;;;;;;28.77;14.57;;;1.00;99.90;;;;;;5094879;28;20031;-76
2021/03/17 00:46:54;;;;;;;27.50;15.52;;;0.90;99.90;;;;;;5094734;28;20069;-76
2021/03/17 00:49:20;;;;;;;25.23;14.80;;;0.90;99.90;;;;;;5094786;28;20400;-76
2021/03/17 00:51:45;;;;;;;25.58;15.93;;;0.80;99.90;;;;;;5094711;28;20085;-76
2021/03/17 00:54:11;;;;;;;27.00;15.20;;;0.80;99.90;;;;;;5094516;28;20024;-76
2021/03/17 00:56:37;;;;;;;27.70;15.07;;;0.80;99.90;;;;;;5094506;28;20043;-76
2021/03/17 00:59:03;;;;;;;26.10;15.52;;;0.80;99.90;;;;;;5094550;28;20032;-76
2021/03/17 01:01:29;;;;;;;28.48;14.90;;;0.80;99.90;;;;;;5094645;28;20051;-76
2021/03/17 01:03:54;;;;;;;23.65;13.98;;;0.80;99.90;;;;;;5094635;28;20114;-76
2021/03/17 01:06:20;;;;;;;24.67;14.48;;;0.80;99.90;;;;;;5094268;28;20096;-76
2021/03/17 01:08:45;;;;;;;27.85;15.85;;;0.90;99.90;;;;;;5094436;28;20039;-76
2021/03/17 01:11:11;;;;;;;28.30;14.80;;;0.90;99.90;;;;;;5094378;28;20024;-76
2021/03/17 01:13:37;;;;;;;22.60;14.13;;;0.90;99.90;;;;;;5094242;28;20389;-76
2021/03/17 01:16:03;;;;;;;24.35;14.00;;;0.90;99.90;;;;;;5094176;28;20020;-76
2021/03/17 01:18:28;;;;;;;22.90;13.52;;;0.90;99.90;;;;;;5094335;28;20052;-76
2021/03/17 01:20:54;;;;;;;25.30;13.75;;;0.90;99.90;;;;;;5094184;28;20089;-75
2021/03/17 01:23:20;;;;;;;26.52;14.50;;;0.90;99.90;;;;;;5094158;28;20032;-75
2021/03/17 01:25:46;;;;;;;26.05;14.27;;;0.90;99.90;;;;;;5094047;28;20024;-75
2021/03/17 01:28:12;;;;;;;24.33;13.85;;;0.90;99.90;;;;;;5094102;28;20111;-75
2021/03/17 01:30:44;;;;;;;24.20;13.82;;;0.90;99.90;;;;;;5094097;28;20032;-75
2021/03/17 01:33:11;;;;;;;23.38;14.93;;;1.00;99.90;;;;;;5101605;28;20086;-75
2021/03/17 01:35:37;;;;;;;21.13;12.35;;;1.00;99.90;;;;;;5102995;28;20021;-75
2021/03/17 01:38:03;;;;;;;22.38;11.93;;;1.00;99.90;;;;;;5103283;28;20031;-75
2021/03/17 01:40:30;;;;;;;22.65;13.02;;;1.00;99.90;;;;;;5097811;28;20024;-75
2021/03/17 01:42:56;;;;;;;22.83;12.27;;;1.00;99.90;;;;;;5098347;28;20056;-75
2021/03/17 01:45:23;;;;;;;18.52;11.00;;;1.00;99.90;;;;;;5094878;28;20031;-75
2021/03/17 01:47:50;;;;;;;21.80;12.18;;;0.90;99.90;;;;;;5093927;28;20107;-76
2021/03/17 01:50:25;;;;;;;17.98;11.25;;;0.90;99.90;;;;;;5093809;28;20020;-75
2021/03/17 01:52:51;;;;;;;20.90;10.85;;;0.90;99.90;;;;;;5093736;28;20434;-76
2021/03/17 01:55:17;;;;;;;20.23;11.93;;;1.00;99.90;;;;;;5093499;28;20032;-75
2021/03/17 01:57:44;;;;;;;21.83;12.25;;;0.90;99.90;;;;;;5093570;28;20069;-76
2021/03/17 02:00:13;;;;;;;19.45;11.82;;;1.00;99.90;;;;;;5093650;28;20020;-76
2021/03/17 02:02:40;;;;;;;17.15;10.40;;;1.00;99.90;;;;;;5093453;28;20103;-76
2021/03/17 02:05:12;;;;;;;20.88;11.32;;;1.00;99.90;;;;;;5093331;28;20020;-76
2021/03/17 02:07:38;;;;;;;18.83;10.63;;;1.00;99.90;;;;;;5093408;28;20093;-76
2021/03/17 02:10:22;;;;;;;19.98;10.68;;;0.90;99.90;;;;;;5093196;28;20077;-75
2021/03/17 02:13:07;;;;;;;24.10;12.15;;;0.90;99.90;;;;;;5093060;28;20476;-76
2021/03/17 02:15:59;;;;;;;19.45;11.57;;;0.90;99.90;;;;;;5093108;28;20078;-76
2021/03/17 02:18:53;;;;;;;19.35;11.48;;;0.90;99.90;;;;;;5092400;28;20439;-76
2021/03/17 02:21:37;;;;;;;18.60;10.70;;;0.90;99.90;;;;;;5093140;28;20048;-76
2021/03/17 02:24:24;;;;;;;20.40;11.15;;;1.00;99.90;;;;;;5093014;28;20031;-76
2021/03/17 02:27:18;;;;;;;19.05;11.73;;;1.00;99.90;;;;;;5092749;28;20027;-76
2021/03/17 02:30:06;;;;;;;20.08;11.65;;;0.90;99.90;;;;;;5092925;28;20481;-76
2021/03/17 02:32:50;;;;;;;16.63;10.77;;;0.90;99.90;;;;;;5092871;28;20032;-76
2021/03/17 02:35:18;;;;;;;17.90;10.98;;;0.90;99.90;;;;;;5092674;28;20081;-76
2021/03/17 02:37:48;;;;;;;22.60;12.07;;;0.90;99.90;;;;;;5092755;28;20020;-76
2021/03/17 02:40:26;;;;;;;23.92;12.48;;;0.90;99.90;;;;;;5092718;28;20106;-76
2021/03/17 02:43:03;;;;;;;23.38;13.00;;;0.80;99.90;;;;;;5092743;28;20098;-76
2021/03/17 02:45:31;;;;;;;22.27;12.90;;;0.70;99.90;;;;;;5092519;28;20020;-76
2021/03/17 02:48:17;;;;;;;24.17;13.35;;;0.80;99.90;;;;;;5092502;28;20020;-76
2021/03/17 02:50:45;;;;;;;28.05;13.90;;;0.90;99.90;;;;;;5092577;28;20427;-76
2021/03/17 02:53:13;;;;;;;24.13;13.07;;;0.90;99.90;;;;;;5092374;28;20020;-76
2021/03/17 02:55:48;;;;;;;22.25;12.82;;;1.00;99.90;;;;;;5092260;28;20086;-76
2021/03/17 02:58:15;;;;;;;22.73;13.23;;;1.10;99.90;;;;;;5092513;28;20058;-76
2021/03/17 03:00:41;;;;;;;23.48;12.60;;;1.20;99.90;;;;;;5092463;28;20024;-76
2021/03/17 03:03:09;;;;;;;22.77;12.50;;;1.30;99.90;;;;;;5092385;28;20393;-76
2021/03/17 03:05:35;;;;;;;21.20;12.13;;;1.40;99.90;;;;;;5092141;28;20392;-76
2021/03/17 03:08:01;;;;;;;20.35;11.75;;;1.40;99.90;;;;;;5092234;28;20027;-76
2021/03/17 03:10:29;;;;;;;18.73;10.68;;;1.40;99.90;;;;;;5092185;28;20024;-76
2021/03/17 03:12:56;;;;;;;23.70;12.43;;;1.40;99.90;;;;;;5092047;28;20028;-76
2021/03/17 03:15:24;;;;;;;18.67;11.23;;;1.40;99.90;;;;;;5092042;28;20078;-76
2021/03/17 03:17:50;;;;;;;18.30;11.65;;;1.50;99.90;;;;;;5092111;28;20020;-76
2021/03/17 03:20:19;;;;;;;20.58;12.57;;;1.40;99.90;;;;;;5092076;28;20454;-76
2021/03/17 03:22:47;;;;;;;19.30;11.70;;;1.30;99.90;;;;;;5092055;28;20016;-76
2021/03/17 03:25:15;;;;;;;19.15;11.25;;;1.30;99.90;;;;;;5091887;28;20388;-75
2021/03/17 03:27:42;;;;;;;23.00;12.40;;;1.30;99.90;;;;;;5091986;28;20030;-76
2021/03/17 03:30:15;;;;;;;23.48;12.18;;;1.30;99.90;;;;;;5090936;28;20020;-76
2021/03/17 03:32:42;;;;;;;22.40;14.30;;;1.30;99.90;;;;;;5091937;28;20026;-76
2021/03/17 03:35:10;;;;;;;25.42;14.80;;;1.30;99.90;;;;;;5091702;28;20198;-76
2021/03/17 03:37:37;;;;;;;27.00;15.38;;;1.30;99.90;;;;;;5091807;28;20020;-76
2021/03/17 03:40:15;;;;;;;27.02;15.70;;;1.20;99.90;;;;;;5091744;28;20107;-76
2021/03/17 03:42:43;;;;;;;23.70;13.85;;;1.20;99.90;;;;;;5091754;28;20069;-76
2021/03/17 03:45:13;;;;;;;26.05;14.50;;;1.20;99.90;;;;;;5091591;28;20051;-76
2021/03/17 03:47:39;;;;;;;25.45;13.70;;;1.30;99.90;;;;;;5091617;28;20036;-76
2021/03/17 03:50:07;;;;;;;24.17;14.25;;;1.30;99.90;;;;;;5091598;28;20482;-76
2021/03/17 03:52:46;;;;;;;23.17;14.18;;;1.30;99.90;;;;;;5091573;28;20032;-76
2021/03/17 03:55:26;;;;;;;29.58;13.75;;;1.30;99.90;;;;;;5091440;28;20553;-76
2021/03/17 03:57:55;;;;;;;20.85;13.02;;;1.20;99.90;;;;;;5091582;28;20542;-76
2021/03/17 04:00:23;;;;;;;26.77;14.13;;;1.20;99.90;;;;;;5091531;28;20024;-76
2021/03/17 04:02:54;;;;;;;26.88;15.15;;;1.20;99.90;;;;;;5091644;28;20031;-76
2021/03/17 04:05:23;;;;;;;23.65;13.20;;;1.20;99.90;;;;;;5091414;28;20020;-76
2021/03/17 04:07:53;;;;;;;25.00;13.88;;;1.20;99.90;;;;;;5091392;28;20502;-76
2021/03/17 04:10:21;;;;;;;22.40;13.52;;;1.20;99.90;;;;;;5091711;28;20111;-76
2021/03/17 04:12:48;;;;;;;27.20;13.80;;;1.20;99.90;;;;;;5091372;28;20044;-76
2021/03/17 04:15:15;;;;;;;22.40;13.30;;;1.20;99.90;;;;;;5091677;28;20027;-76
2021/03/17 04:17:57;;;;;;;27.55;14.48;;;1.30;99.90;;;;;;5091396;28;20107;-76
2021/03/17 04:20:37;;;;;;;23.70;13.77;;;1.20;99.90;;;;;;5091342;28;20027;-76
2021/03/17 04:23:06;;;;;;;30.48;14.98;;;1.30;99.90;;;;;;5091288;28;20024;-76
2021/03/17 04:25:33;;;;;;;23.38;14.50;;;1.30;99.90;;;;;;5091137;28;20024;-76
2021/03/17 04:28:00;;;;;;;26.55;14.48;;;1.30;99.90;;;;;;5091271;28;20054;-76
2021/03/17 04:30:26;;;;;;;22.63;12.35;;;1.40;99.90;;;;;;5091229;28;20024;-76
2021/03/17 04:32:52;;;;;;;21.98;13.80;;;1.40;99.90;;;;;;5091212;28;20389;-76
2021/03/17 04:35:20;;;;;;;26.38;14.60;;;1.40;99.90;;;;;;5091148;28;20031;-76
2021/03/17 04:37:48;;;;;;;21.73;12.57;;;1.40;99.90;;;;;;5091200;28;20063;-76
2021/03/17 04:40:15;;;;;;;21.80;12.48;;;1.40;99.90;;;;;;5091258;28;20024;-76
2021/03/17 04:42:41;;;;;;;22.55;12.80;;;1.40;99.90;;;;;;5093786;28;20074;-76
2021/03/17 04:45:09;;;;;;;21.42;12.88;;;1.40;99.90;;;;;;5095074;28;20024;-76
2021/03/17 04:47:35;;;;;;;22.38;13.27;;;1.40;99.90;;;;;;5095310;28;20378;-76
2021/03/17 04:50:01;;;;;;;21.67;13.25;;;1.40;99.90;;;;;;5094880;28;20110;-76
2021/03/17 04:52:28;;;;;;;24.20;15.05;;;1.40;99.90;;;;;;5094766;28;20024;-76
2021/03/17 04:54:54;;;;;;;25.20;13.80;;;1.40;99.90;;;;;;5094514;28;20032;-76
2021/03/17 04:57:25;;;;;;;29.40;14.80;;;1.30;99.90;;;;;;5104044;23;20044;-77
2021/03/17 04:59:51;;;;;;;27.60;15.45;;;1.20;99.90;;;;;;5080332;28;20023;-77
2021/03/17 05:02:22;;;;;;;25.65;14.60;;;1.20;99.90;;;;;;5080760;28;20032;-78
2021/03/17 05:04:48;;;;;;;27.58;16.08;;;1.20;99.90;;;;;;5080354;28;20024;-77
2021/03/17 05:07:16;;;;;;;28.45;15.88;;;1.10;99.90;;;;;;5079992;28;20031;-77
2021/03/17 05:09:44;;;;;;;27.58;15.18;;;1.10;99.90;;;;;;5080132;28;20024;-76
2021/03/17 05:12:12;;;;;;;27.27;16.17;;;1.20;99.90;;;;;;5079836;28;20020;-78
2021/03/17 05:14:38;;;;;;;25.02;15.35;;;1.20;99.90;;;;;;5079682;28;20463;-77
2021/03/17 05:17:04;;;;;;;26.45;14.57;;;1.20;99.90;;;;;;5079774;28;20020;-78
2021/03/17 05:19:31;;;;;;;27.90;15.30;;;1.10;99.90;;;;;;5079921;28;20020;-78
2021/03/17 05:21:58;;;;;;;30.77;16.40;;;1.10;99.90;;;;;;5080654;28;20024;-78
2021/03/17 05:24:25;;;;;;;28.55;16.02;;;1.10;99.90;;;;;;5082362;28;20024;-79
2021/03/17 05:26:53;;;;;;;28.60;15.45;;;1.10;99.90;;;;;;5084980;28;20500;-78
2021/03/17 05:29:21;;;;;;;31.48;16.25;;;1.20;99.90;;;;;;5084523;28;20028;-78
2021/03/17 05:31:52;;;;;;;27.85;15.50;;;1.20;99.90;;;;;;5084335;28;20047;-79
2021/03/17 05:34:18;;;;;;;30.20;15.82;;;1.20;99.90;;;;;;5084830;28;20039;-78
2021/03/17 05:36:43;;;;;;;30.77;16.80;;;1.20;99.90;;;;;;5084889;28;20127;-78
2021/03/17 05:39:09;;;;;;;29.55;16.55;;;1.20;99.90;;;;;;5080250;28;20048;-78
2021/03/17 05:41:35;;;;;;;27.02;15.88;;;1.20;99.90;;;;;;5079487;28;20121;-78
2021/03/17 05:44:02;;;;;;;29.70;15.18;;;1.10;99.90;;;;;;5079372;28;20032;-77
2021/03/17 05:46:28;;;;;;;30.20;16.05;;;1.10;99.90;;;;;;5079928;28;20489;-78
2021/03/17 05:48:57;;;;;;;29.23;15.75;;;1.20;99.90;;;;;;5078949;28;20028;-77
2021/03/17 05:51:24;;;;;;;26.85;15.00;;;1.30;99.90;;;;;;5096572;28;20024;-77
2021/03/17 05:53:50;;;;;;;23.67;14.10;;;1.30;99.90;;;;;;5078068;28;20031;-78
2021/03/17 05:56:16;;;;;;;25.23;15.27;;;1.30;99.90;;;;;;5079312;28;20024;-76
2021/03/17 05:58:43;;;;;;;26.17;13.43;;;1.40;99.90;;;;;;5096862;28;20025;-77
2021/03/17 06:01:11;;;;;;;26.27;13.38;;;1.50;99.90;;;;;;5080336;28;20020;-77
2021/03/17 06:03:37;;;;;;;23.98;13.80;;;1.50;99.90;;;;;;5079090;28;20122;-77
2021/03/17 06:06:05;;;;;;;26.55;15.45;;;1.60;99.90;;;;;;5078641;28;20056;-78
2021/03/17 06:08:43;;;;;;;30.65;14.48;;;1.70;99.90;;;;;;5079354;28;20066;-78
2021/03/17 06:11:13;;;;;;;24.88;14.27;;;1.70;99.90;;;;;;5079855;28;20060;-78
2021/03/17 06:13:55;;;;;;;25.50;16.17;;;1.80;99.90;;;;;;5079891;28;20028;-78
2021/03/17 06:16:23;;;;;;;23.27;12.95;;;1.90;99.90;;;;;;5080291;28;20062;-78
2021/03/17 06:19:08;;;;;;;20.92;12.32;;;1.90;99.90;;;;;;5079284;28;20028;-78
2021/03/17 06:21:36;;;;;;;25.75;14.02;;;2.10;99.90;;;;;;5078053;28;20436;-78
2021/03/17 06:24:02;;;;;;;22.65;14.10;;;2.20;99.90;;;;;;5077943;28;20473;-77
2021/03/17 06:26:29;;;;;;;84.32;74.80;;;2.20;99.90;;;;;;5077377;28;20028;-77
2021/03/17 06:28:55;;;;;;;40.38;32.67;;;2.40;99.90;;;;;;5077319;28;20110;-78
2021/03/17 06:31:21;;;;;;;29.63;23.95;;;2.40;99.90;;;;;;5077543;28;20470;-78
2021/03/17 06:33:47;;;;;;;46.58;35.58;;;2.50;99.90;;;;;;5077108;28;20040;-78
2021/03/17 06:36:14;;;;;;;24.80;15.55;;;2.50;99.90;;;;;;5076894;28;20020;-78
2021/03/17 06:38:40;;;;;;;23.42;14.20;;;2.50;99.90;;;;;;5077556;28;20024;-78
2021/03/17 06:41:07;;;;;;;26.48;17.25;;;2.60;99.90;;;;;;5077269;28;20163;-79
2021/03/17 06:43:38;;;;;;;38.35;26.50;;;2.70;99.90;;;;;;5077408;28;20028;-78
2021/03/17 06:46:06;;;;;;;53.42;32.92;;;2.80;99.90;;;;;;5079955;28;20032;-77
2021/03/17 06:48:32;;;;;;;123.53;66.85;;;2.80;99.90;;;;;;5084879;28;20027;-77
2021/03/17 06:51:07;;;;;;;43.08;25.20;;;2.80;99.90;;;;;;5084632;28;20032;-77
2021/03/17 06:53:51;;;;;;;36.70;27.10;;;2.80;99.90;;;;;;5085272;28;20032;-77
2021/03/17 06:56:43;;;;;;;47.40;31.52;;;2.80;99.90;;;;;;5080830;28;20024;-78
2021/03/17 06:59:09;;;;;;;33.13;21.77;;;3.00;99.90;;;;;;5078540;28;20028;-78
2021/03/17 07:01:42;;;;;;;45.92;34.13;;;3.10;99.90;;;;;;5077714;28;20095;-77
2021/03/17 07:04:19;;;;;;;35.95;23.65;;;3.20;99.90;;;;;;5080302;28;20028;-78
2021/03/17 07:06:59;;;;;;;25.40;16.98;;;3.40;99.90;;;;;;5080439;28;20020;-78
2021/03/17 07:09:27;;;;;;;25.33;16.92;;;3.60;99.90;;;;;;5083617;28;20024;-79
2021/03/17 07:12:07;;;;;;;25.67;16.65;;;3.80;99.90;;;;;;5083731;28;20020;-80
2021/03/17 07:14:41;;;;;;;26.45;19.52;;;3.90;99.90;;;;;;5083961;28;20020;-79
2021/03/17 07:17:25;;;;;;;32.95;23.92;;;4.10;99.90;;;;;;5080359;28;20020;-79
2021/03/17 07:19:51;;;;;;;21.65;14.18;;;4.20;99.90;;;;;;5080033;28;20024;-79
2021/03/17 07:22:17;;;;;;;21.15;15.32;;;4.30;99.90;;;;;;5077638;28;20024;-79
2021/03/17 07:24:45;;;;;;;19.80;13.23;;;4.50;99.90;;;;;;5077262;28;20024;-78
2021/03/17 07:27:22;;;;;;;25.33;14.30;;;4.60;99.90;;;;;;5077164;28;20027;-78
2021/03/17 07:30:02;;;;;;;22.77;14.05;;;4.50;99.90;;;;;;5078125;28;20038;-79
2021/03/17 07:32:28;;;;;;;20.65;12.25;;;4.60;99.90;;;;;;5078190;28;20061;-79
2021/03/17 07:34:54;;;;;;;21.58;13.02;;;4.60;99.90;;;;;;5076569;28;20028;-78
2021/03/17 07:37:27;;;;;;;21.85;13.82;;;4.30;99.90;;;;;;5076358;28;20035;-78
2021/03/17 07:39:56;;;;;;;20.13;12.93;;;4.20;99.90;;;;;;5077217;28;20020;-78
2021/03/17 07:42:24;;;;;;;19.75;13.93;;;4.30;99.90;;;;;;5076695;28;20023;-78
2021/03/17 07:44:50;;;;;;;22.88;15.32;;;4.20;99.90;;;;;;5076573;28;20028;-77
2021/03/17 07:47:16;;;;;;;20.98;13.43;;;4.00;99.90;;;;;;5075050;28;20077;-77
2021/03/17 07:49:44;;;;;;;18.20;13.35;;;4.10;99.90;;;;;;5074996;28;20021;-77
2021/03/17 07:52:26;;;;;;;22.65;13.88;;;4.20;99.90;;;;;;5075044;28;20028;-77
2021/03/17 07:54:58;;;;;;;23.40;15.13;;;4.50;99.90;;;;;;5075131;28;20024;-77
2021/03/17 07:57:28;;;;;;;21.85;13.85;;;4.80;99.90;;;;;;5076172;28;20040;-78
2021/03/17 07:59:56;;;;;;;24.70;14.57;;;5.00;99.90;;;;;;5075283;28;20035;-77
2021/03/17 08:02:23;;;;;;;22.80;15.80;;;5.10;99.90;;;;;;5075342;28;20020;-78
2021/03/17 08:04:50;;;;;;;23.35;14.98;;;5.10;99.90;;;;;;5093310;28;20051;-77
2021/03/17 08:07:18;;;;;;;22.20;14.60;;;5.00;99.90;;;;;;5074928;28;20031;-77
2021/03/17 08:09:45;;;;;;;26.40;15.80;;;4.80;99.90;;;;;;5074983;28;20028;-77
2021/03/17 08:12:11;;;;;;;23.77;15.73;;;4.70;99.90;;;;;;5075360;28;20020;-78
2021/03/17 08:14:41;;;;;;;22.17;14.43;;;4.70;99.90;;;;;;5093211;28;20028;-77
2021/03/17 08:17:10;;;;;;;25.48;16.40;;;4.70;99.90;;;;;;5076757;28;20028;-77
2021/03/17 08:19:36;;;;;;;25.35;15.45;;;4.60;99.90;;;;;;5078951;28;20026;-78
2021/03/17 08:22:06;;;;;;;21.42;14.90;;;4.40;99.90;;;;;;5079098;28;20087;-77
2021/03/17 08:24:41;;;;;;;25.45;15.38;;;4.30;99.90;;;;;;5079117;28;20020;-78
2021/03/17 08:27:06;;;;;;;21.83;14.68;;;4.20;99.90;;;;;;5078819;28;20074;-77
2021/03/17 08:29:47;;;;;;;24.15;15.38;;;4.20;99.90;;;;;;5079040;28;20024;-77
2021/03/17 08:32:15;;;;;;;24.60;15.45;;;4.40;99.90;;;;;;5078435;28;20495;-77
2021/03/17 08:34:57;;;;;;;25.08;15.90;;;4.50;99.90;;;;;;5078514;28;20032;-77
2021/03/17 08:37:48;;;;;;;21.63;13.77;;;4.70;99.90;;;;;;5078243;28;20016;-77
2021/03/17 08:40:29;;;;;;;21.30;14.02;;;5.10;99.90;;;;;;5089955;28;20000;-78
2021/03/17 08:43:18;;;;;;;21.17;13.02;;;5.40;99.90;;;;;;5100430;28;20017;-77
2021/03/17 08:45:44;;;;;;;18.02;12.52;;;5.60;99.90;;;;;;5099367;28;20051;-77
2021/03/17 08:48:09;;;;;;;19.50;12.77;;;5.80;99.90;;;;;;5100112;28;20024;-78
2021/03/17 08:50:47;;;;;;;18.08;12.40;;;5.80;99.90;;;;;;5100924;28;20030;-77
2021/03/17 08:53:39;;;;;;;17.70;13.10;;;5.80;99.90;;;;;;5101566;28;20016;-77
2021/03/17 08:56:05;;;;;;;17.92;12.55;;;5.70;99.90;;;;;;5115640;28;20031;-78
2021/03/17 08:58:30;;;;;;;17.80;11.55;;;5.60;99.90;;;;;;5094059;28;20028;-78
2021/03/17 09:00:58;;;;;;;18.95;12.73;;;5.70;99.90;;;;;;5094226;28;20017;-78
2021/03/17 09:03:43;;;;;;;18.98;11.23;;;5.80;99.90;;;;;;5096933;28;20077;-77
2021/03/17 09:06:23;;;;;;;15.40;8.30;;;7.00;99.90;;;;;;5094772;28;20024;-78
2021/03/17 09:08:55;;;;;;;10.52;6.95;;;8.20;99.90;;;;;;5088204;28;20115;-79
2021/03/17 09:11:29;;;;;;;12.43;8.02;;;9.00;99.90;;;;;;5101478;28;20040;-79
2021/03/17 09:13:58;;;;;;;13.02;8.55;;;9.10;99.90;;;;;;5100238;28;20049;-79
2021/03/17 09:16:24;;;;;;;13.00;9.20;;;8.90;99.90;;;;;;5085526;28;20073;-80
2021/03/17 09:19:06;;;;;;;13.57;9.85;;;8.50;99.90;;;;;;5088261;28;20037;-79
2021/03/17 09:21:34;;;;;;;14.38;9.57;;;8.10;99.90;;;;;;5087711;28;20030;-78
2021/03/17 09:24:00;;;;;;;14.27;10.05;;;8.10;99.90;;;;;;5087623;28;20081;-79
2021/03/17 09:26:30;;;;;;;13.00;10.15;;;8.30;99.90;;;;;;5088936;28;20024;-79
2021/03/17 09:28:56;;;;;;;12.85;9.27;;;9.00;99.90;;;;;;5087891;28;20048;-78
2021/03/17 09:31:22;;;;;;;13.75;9.57;;;9.80;99.90;;;;;;5084278;28;20035;-78
2021/03/17 09:33:49;;;;;;;13.23;9.45;;;11.00;99.90;;;;;;5084330;28;20032;-79
2021/03/17 09:36:23;;;;;;;13.85;9.00;;;11.40;98.90;;;;;;5099288;28;20491;-78
2021/03/17 09:38:53;;;;;;;14.23;8.32;;;11.80;94.40;;;;;;5080119;28;20020;-78
2021/03/17 09:41:27;;;;;;;12.25;9.15;;;13.10;89.50;;;;;;5078581;28;20388;-77
2021/03/17 09:43:58;;;;;;;12.38;8.48;;;15.10;77.40;;;;;;5077617;28;20024;-77
2021/03/17 09:46:41;;;;;;;10.45;9.13;;;19.10;56.60;;;;;;5077399;28;20110;-77
2021/03/17 09:49:12;;;;;;;9.50;7.03;;;23.80;44.20;;;;;;5094494;28;20092;-77
2021/03/17 09:51:39;;;;;;;9.70;6.75;;;25.90;34.90;;;;;;5078846;28;20056;-78
2021/03/17 09:54:08;;;;;;;8.90;7.32;;;23.60;36.80;;;;;;5095745;28;20031;-78
2021/03/17 09:56:50;;;;;;;12.57;8.05;;;20.70;41.00;;;;;;5078444;28;20037;-77
2021/03/17 09:59:35;;;;;;;10.85;7.85;;;17.20;49.20;;;;;;5077433;28;20024;-77
2021/03/17 10:02:25;;;;;;;9.57;7.03;;;16.80;50.10;;;;;;5077615;28;20027;-77
2021/03/17 10:04:56;;;;;;;7.63;5.45;;;16.30;51.10;;;;;;5077207;28;20397;-77
2021/03/17 10:07:26;;;;;;;7.53;5.15;;;19.80;44.70;;;;;;5077012;28;20024;-77
2021/03/17 10:09:54;;;;;;;6.30;5.45;;;24.60;38.60;;;;;;5076858;28;20111;-77
2021/03/17 10:12:26;;;;;;;8.98;5.53;;;28.30;31.70;;;;;;5076906;28;20021;-77
2021/03/17 10:14:59;;;;;;;6.38;4.55;;;27.80;30.00;;;;;;5076569;28;20024;-77
2021/03/17 10:17:28;;;;;;;6.63;4.75;;;25.30;30.10;;;;;;5093687;28;20111;-77
2021/03/17 10:20:03;;;;;;;7.78;5.05;;;23.70;33.30;;;;;;5077146;28;20115;-77
2021/03/17 10:22:30;;;;;;;6.47;4.70;;;21.80;35.70;;;;;;5077461;28;20020;-77
2021/03/17 10:24:59;;;;;;;4.35;3.00;;;21.00;38.10;;;;;;5076837;28;20028;-76
2021/03/17 10:27:59;;;;;;;6.95;4.72;;;21.60;36.30;;;;;;5076212;28;20485;-77
2021/03/17 10:30:31;;;;;;;7.15;4.53;;;20.90;37.00;;;;;;5068443;28;20123;-77
2021/03/17 10:33:01;;;;;;;6.68;4.13;;;19.10;38.80;;;;;;5076076;28;20024;-77
2021/03/17 10:35:28;;;;;;;5.38;3.85;;;17.50;40.90;;;;;;5076020;28;20036;-77
2021/03/17 10:37:54;;;;;;;10.32;4.63;;;15.80;44.90;;;;;;5076010;28;20020;-77
2021/03/17 10:40:22;;;;;;;5.00;2.85;;;15.20;47.00;;;;;;5075594;28;20024;-77
2021/03/17 10:42:58;;;;;;;5.47;3.00;;;14.40;46.60;;;;;;5075937;28;20548;-76
2021/03/17 10:45:32;;;;;;;6.75;3.20;;;14.00;47.30;;;;;;5076696;28;20024;-76
2021/03/17 10:48:08;;;;;;;6.70;3.45;;;13.10;46.40;;;;;;5075877;28;20528;-77
2021/03/17 10:50:36;;;;;;;7.80;3.72;;;12.80;49.20;;;;;;5075864;28;20016;-77
2021/03/17 10:53:33;;;;;;;7.78;4.35;;;13.00;53.10;;;;;;5075787;28;20038;-76
2021/03/17 10:56:03;;;;;;;9.50;6.60;;;14.00;51.40;;;;;;5096668;23;20032;-76
2021/03/17 10:58:39;;;;;;;10.77;5.63;;;13.30;54.00;;;;;;5092797;28;20034;-74
2021/03/17 11:01:05;;;;;;;13.20;6.80;;;15.20;49.80;;;;;;5092949;28;20505;-75
2021/03/17 11:03:40;;;;;;;8.43;4.82;;;17.60;46.50;;;;;;5092714;28;20031;-75
2021/03/17 11:06:16;;;;;;;8.77;6.25;;;19.00;40.50;;;;;;5092819;28;20034;-75
2021/03/17 11:08:43;;;;;;;5.75;4.55;;;18.00;41.20;;;;;;5092866;28;20073;-75
2021/03/17 11:11:13;;;;;;;7.20;3.35;;;17.50;43.40;;;;;;5093161;28;20028;-75
2021/03/17 11:13:44;;;;;;;6.50;4.72;;;16.50;42.30;;;;;;5093374;28;20030;-75
2021/03/17 11:16:35;;;;;;;6.28;4.32;;;16.00;43.10;;;;;;5096915;28;20041;-74
2021/03/17 11:19:02;;;;;;;9.88;4.65;;;15.10;46.80;;;;;;5092101;28;20024;-75
2021/03/17 11:21:36;;;;;;;9.65;4.15;;;14.20;48.70;;;;;;5102551;28;20095;-74
2021/03/17 11:24:24;;;;;;;5.82;3.75;;;13.10;50.40;;;;;;5098717;28;20024;-74
2021/03/17 11:26:49;;;;;;;5.35;4.40;;;12.10;52.60;;;;;;5097060;28;20032;-74
2021/03/17 11:29:21;;;;;;;10.80;5.15;;;11.10;54.70;;;;;;5095365;28;20105;-74
2021/03/17 11:31:50;;;;;;;8.15;5.18;;;10.10;60.50;;;;;;5093382;28;20507;-75
2021/03/17 11:34:20;;;;;;;7.43;4.65;;;9.10;70.00;;;;;;5092878;28;20028;-75
2021/03/17 11:36:46;;;;;;;6.22;4.40;;;8.30;76.80;;;;;;5092958;28;20026;-76
2021/03/17 11:39:14;;;;;;;7.63;4.57;;;7.40;92.10;;;;;;5093108;28;20028;-76
2021/03/17 11:41:42;;;;;;;6.80;4.30;;;6.80;99.90;;;;;;5092972;28;20431;-76
2021/03/17 11:44:12;;;;;;;7.30;4.07;;;6.60;99.90;;;;;;5092897;28;20107;-76
2021/03/17 11:46:38;;;;;;;6.22;4.50;;;5.90;99.90;;;;;;5092386;28;20024;-76
2021/03/17 11:49:04;;;;;;;8.95;4.00;;;5.70;99.90;;;;;;5092217;28;20424;-75
2021/03/17 11:51:29;;;;;;;5.70;4.03;;;5.60;99.90;;;;;;5093461;28;20072;-76
2021/03/17 11:53:55;;;;;;;6.88;4.43;;;5.50;99.90;;;;;;5091873;28;20430;-75
2021/03/17 11:56:21;;;;;;;7.03;4.28;;;5.40;99.90;;;;;;5091791;28;20034;-76
2021/03/17 11:58:51;;;;;;;8.48;4.20;;;5.30;99.90;;;;;;5092060;28;20028;-76
2021/03/17 12:01:20;;;;;;;7.50;4.25;;;5.40;99.90;;;;;;5091852;28;20024;-75
2021/03/17 12:03:51;;;;;;;7.75;3.85;;;6.10;99.90;;;;;;5091837;28;20074;-75
2021/03/17 12:06:17;;;;;;;6.95;3.50;;;7.70;99.90;;;;;;5091889;28;20493;-76
2021/03/17 12:08:43;;;;;;;6.90;3.25;;;10.70;99.90;;;;;;5091621;28;20063;-76
2021/03/17 12:11:08;;;;;;;5.25;2.60;;;15.40;87.50;;;;;;5092775;28;20032;-76
2021/03/17 12:13:34;;;;;;;5.25;2.90;;;20.30;57.90;;;;;;5093013;28;20020;-77
2021/03/17 12:15:59;;;;;;;3.80;2.20;;;23.50;44.50;;;;;;5092730;28;20024;-76
2021/03/17 12:18:25;;;;;;;3.95;1.90;;;25.90;39.80;;;;;;5091591;28;20024;-77
2021/03/17 12:20:51;;;;;;;3.53;1.60;;;27.50;35.40;;;;;;5091444;28;20082;-75
2021/03/17 12:23:18;;;;;;;3.67;1.95;;;30.00;31.30;;;;;;5091586;28;20096;-74
2021/03/17 12:25:45;;;;;;;2.90;2.45;;;31.70;29.00;;;;;;5091628;28;20028;-75
2021/03/17 12:28:11;;;;;;;2.20;1.52;;;32.90;26.80;;;;;;5091634;28;20400;-75
2021/03/17 12:30:38;;;;;;;3.25;2.20;;;33.70;26.20;;;;;;5091634;28;20020;-76
2021/03/17 12:33:03;;;;;;;3.50;2.50;;;33.60;25.50;;;;;;5091528;28;20024;-74
2021/03/17 12:35:29;;;;;;;2.90;2.10;;;32.80;25.40;;;;;;5092882;28;20031;-75
2021/03/17 12:37:55;;;;;;;2.70;1.92;;;32.50;25.30;;;;;;5091549;28;20032;-76
2021/03/17 12:40:24;;;;;;;3.20;2.28;;;32.40;25.80;;;;;;5091455;28;20024;-75
2021/03/17 12:42:51;;;;;;;3.20;2.90;;;32.40;24.90;;;;;;5091309;28;20027;-75
2021/03/17 12:45:20;;;;;;;3.75;2.35;;;30.90;25.50;;;;;;5091379;28;20542;-74
2021/03/17 12:47:46;;;;;;;3.60;2.60;;;30.70;26.30;;;;;;5091351;28;20432;-75
2021/03/17 12:50:14;;;;;;;3.80;2.42;;;29.90;26.60;;;;;;5092206;28;20027;-75
2021/03/17 12:52:40;;;;;;;3.15;2.53;;;29.70;26.90;;;;;;5091351;28;20477;-75
2021/03/17 12:55:07;;;;;;;3.13;2.45;;;30.60;26.60;;;;;;5091209;28;20032;-75